Time;durP1;ratioP1;P1;durP2;ratioP2;P2;SDS_P1;SDS_P2;PMS_P1;PMS_P2;Temp;Humidity;BMP_temperature;BMP_pressure;BME280_temperature;BME280_humidity;BME280_pressure;Samples;Min_cycle;Max_cycle;Signal;HPM_P1;HPM_P2
2021/05/13 00:00:48;;;;;;;4.45;1.60;;;;;;;14.89;67.06;98089.05;1708134;83;21076;-79
2021/05/13 00:03:15;;;;;;;1.55;1.05;;;;;;;14.91;67.08;98078.50;1712859;82;21105;-79
2021/05/13 00:05:42;;;;;;;1.65;1.00;;;;;;;14.89;66.88;98081.20;1732758;82;21055;-78
2021/05/13 00:08:08;;;;;;;2.35;1.00;;;;;;;14.91;67.56;98078.50;1705221;83;21056;-78
2021/05/13 00:10:35;;;;;;;2.15;1.00;;;;;;;14.85;67.96;98081.00;1733833;82;21038;-78
2021/05/13 00:13:03;;;;;;;1.92;1.10;;;;;;;14.78;68.35;98082.76;1731602;82;21080;-78
2021/05/13 00:15:34;;;;;;;2.37;1.07;;;;;;;14.83;67.87;98085.97;1701787;80;21001;-81
2021/05/13 00:18:01;;;;;;;1.37;1.00;;;;;;;14.79;68.12;98086.60;1742567;77;21008;-78
2021/05/13 00:20:32;;;;;;;4.30;1.20;;;;;;;14.75;69.07;98084.27;1703198;83;21156;-78
2021/05/13 00:22:59;;;;;;;1.57;0.90;;;;;;;14.65;69.15;98077.41;1726485;83;21013;-77
2021/05/13 00:25:28;;;;;;;3.20;1.05;;;;;;;14.63;69.08;98077.49;1681684;84;21597;-81
2021/05/13 00:27:55;;;;;;;2.12;1.02;;;;;;;14.57;70.73;98080.47;1693817;84;21092;-78
2021/05/13 00:30:23;;;;;;;3.27;1.40;;;;;;;14.56;72.06;98090.98;1678133;84;21651;-78
2021/05/13 00:32:50;;;;;;;5.83;1.17;;;;;;;14.52;73.13;98095.09;1725305;83;21068;-79
2021/05/13 00:35:19;;;;;;;3.83;1.32;;;;;;;14.50;74.28;98102.63;1698498;82;21019;-78
2021/05/13 00:37:46;;;;;;;3.15;1.35;;;;;;;14.38;74.14;98088.47;1687372;83;21584;-79
2021/05/13 00:40:16;;;;;;;2.85;1.20;;;;;;;14.36;74.01;98106.49;1698443;83;21611;-78
2021/05/13 00:42:42;;;;;;;2.42;1.00;;;;;;;14.28;74.72;98102.55;1688834;83;21072;-78
2021/05/13 00:45:14;;;;;;;2.47;1.17;;;;;;;14.27;76.25;98109.17;1702171;83;21056;-78
2021/05/13 00:48:01;;;;;;;1.87;1.10;;;;;;;14.11;78.06;98098.72;1706283;83;21155;-78
2021/05/13 00:50:16;;;;;;;2.10;1.12;;;;;;;14.09;77.76;98108.42;1700778;83;21753;-78
2021/05/13 00:52:43;;;;;;;4.25;1.50;;;;;;;14.03;78.32;98108.76;1700754;83;21100;-78
2021/05/13 00:55:11;;;;;;;2.87;1.30;;;;;;;13.97;77.83;98115.16;1706231;83;21048;-80
2021/05/13 00:57:41;;;;;;;3.50;1.50;;;;;;;13.88;78.83;98105.20;1701392;83;21104;-80
2021/05/13 01:00:30;;;;;;;3.22;1.50;;;;;;;13.79;79.08;98105.72;1702760;83;21092;-78
2021/05/13 01:02:36;;;;;;;4.55;1.47;;;;;;;13.78;79.89;98103.55;1708882;83;21020;-79
2021/05/13 01:05:03;;;;;;;3.52;1.70;;;;;;;13.79;79.68;98108.33;1717373;83;21064;-78
2021/05/13 01:07:31;;;;;;;5.67;1.52;;;;;;;13.67;81.40;98107.22;1723823;83;21045;-78
2021/05/13 01:09:57;;;;;;;3.85;1.20;;;;;;;13.62;79.79;98105.30;1712891;83;21076;-78
2021/05/13 01:12:24;;;;;;;5.22;1.40;;;;;;;13.49;83.75;98103.34;1700904;83;21045;-78
2021/05/13 01:14:51;;;;;;;4.70;1.80;;;;;;;13.45;84.62;98110.95;1694868;83;21099;-79
2021/05/13 01:17:26;;;;;;;3.95;1.30;;;;;;;13.43;84.51;98109.33;1715503;83;21063;-79
2021/05/13 01:19:51;;;;;;;2.30;1.40;;;;;;;13.40;84.57;98106.42;1707296;83;21052;-78
2021/05/13 01:22:21;;;;;;;2.65;1.25;;;;;;;13.43;84.33;98107.58;1736729;82;21114;-79
2021/05/13 01:24:48;;;;;;;3.12;1.20;;;;;;;13.37;83.93;98105.73;1735280;82;21096;-81
2021/05/13 01:27:17;;;;;;;4.75;1.45;;;;;;;13.33;84.35;98107.22;1743212;82;22236;-78
2021/05/13 01:29:48;;;;;;;6.97;1.32;;;;;;;13.32;83.99;98098.98;1735349;82;21093;-80
2021/05/13 01:32:16;;;;;;;3.05;1.35;;;;;;;13.29;83.60;98092.64;1738939;82;21585;-78
2021/05/13 01:34:43;;;;;;;3.35;1.42;;;;;;;13.22;86.36;98091.70;1735898;82;21988;-79
2021/05/13 01:37:10;;;;;;;5.40;1.60;;;;;;;13.19;87.29;98088.80;1742902;82;21695;-80
2021/05/13 01:39:37;;;;;;;9.60;1.52;;;;;;;13.16;88.77;98093.32;1729502;82;21064;-79
2021/05/13 01:42:04;;;;;;;4.37;1.90;;;;;;;13.19;88.44;98088.80;1734066;82;21033;-79
2021/05/13 01:44:31;;;;;;;2.92;1.35;;;;;;;13.21;85.86;98088.25;1739930;82;21086;-79
2021/05/13 01:46:57;;;;;;;3.45;1.55;;;;;;;13.18;89.58;98085.78;1743496;82;21054;-80
2021/05/13 01:49:24;;;;;;;5.83;1.87;;;;;;;13.25;87.82;98083.69;1740439;82;21695;-80
2021/05/13 01:51:51;;;;;;;3.52;1.77;;;;;;;13.26;87.42;98078.40;1739031;82;21106;-79
2021/05/13 01:54:18;;;;;;;2.95;1.62;;;;;;;13.25;88.51;98087.16;1741054;82;21056;-79
2021/05/13 01:56:45;;;;;;;5.08;1.60;;;;;;;13.29;86.99;98074.38;1743693;82;21104;-77
2021/05/13 01:59:12;;;;;;;3.17;1.42;;;;;;;13.28;85.45;98070.02;1741261;82;21403;-78
2021/05/13 02:01:38;;;;;;;5.12;1.75;;;;;;;13.23;86.14;98063.35;1730751;82;21125;-78
2021/05/13 02:04:05;;;;;;;6.80;1.75;;;;;;;13.25;86.32;98060.20;1741339;82;21041;-78
2021/05/13 02:06:32;;;;;;;4.60;1.80;;;;;;;13.19;89.33;98057.48;1741617;82;21059;-78
2021/05/13 02:08:58;;;;;;;3.87;1.77;;;;;;;13.18;89.60;98060.99;1741564;82;21642;-78
2021/05/13 02:11:25;;;;;;;7.75;1.65;;;;;;;13.19;88.52;98061.83;1738493;82;21050;-78
2021/05/13 02:13:51;;;;;;;6.12;1.85;;;;;;;13.20;86.29;98060.92;1742461;82;21046;-78
2021/05/13 02:16:18;;;;;;;2.62;1.30;;;;;;;13.20;85.87;98061.75;1741985;82;21427;-79
2021/05/13 02:18:44;;;;;;;3.83;1.65;;;;;;;13.19;88.76;98051.39;1743866;82;21038;-78
2021/05/13 02:21:11;;;;;;;3.20;1.27;;;;;;;13.19;86.63;98049.65;1734863;82;21062;-78
2021/05/13 02:23:38;;;;;;;6.70;1.40;;;;;;;13.20;87.84;98052.63;1743753;82;21215;-78
2021/05/13 02:26:04;;;;;;;5.62;1.50;;;;;;;13.22;87.02;98053.38;1734606;82;21598;-78
2021/05/13 02:28:31;;;;;;;4.53;1.70;;;;;;;13.27;85.35;98060.96;1743498;82;21049;-78
2021/05/13 02:30:57;;;;;;;2.58;1.40;;;;;;;13.24;88.66;98052.84;1733645;82;21090;-78
2021/05/13 02:33:24;;;;;;;3.02;1.60;;;;;;;13.29;87.10;98052.59;1743398;82;21082;-79
2021/05/13 02:35:50;;;;;;;2.83;1.42;;;;;;;13.30;87.33;98053.85;1734433;82;21054;-81
2021/05/13 02:38:17;;;;;;;4.10;1.50;;;;;;;13.25;88.61;98060.20;1743290;82;21062;-78
2021/05/13 02:40:43;;;;;;;4.35;1.70;;;;;;;13.23;85.99;98058.13;1734740;82;21061;-80
2021/05/13 02:43:10;;;;;;;3.40;1.50;;;;;;;13.21;86.91;98050.84;1743243;82;21090;-80
2021/05/13 02:45:36;;;;;;;4.70;1.40;;;;;;;13.19;86.79;98052.26;1731351;82;21060;-78
2021/05/13 02:48:04;;;;;;;3.55;1.40;;;;;;;13.13;88.02;98051.27;1743413;82;21114;-77
2021/05/13 02:50:30;;;;;;;4.95;1.60;;;;;;;13.11;86.61;98044.82;1735324;82;21045;-78
2021/05/13 02:52:57;;;;;;;4.95;1.90;;;;;;;13.08;87.97;98050.19;1743196;82;21113;-81
2021/05/13 02:55:23;;;;;;;3.83;1.52;;;;;;;13.09;88.81;98058.85;1731518;82;21053;-78
2021/05/13 02:57:50;;;;;;;3.98;1.52;;;;;;;13.07;89.36;98053.73;1743285;82;21674;-78
2021/05/13 03:00:29;;;;;;;4.65;1.80;;;;;;;13.10;88.95;98057.47;1741923;82;21021;-79
2021/05/13 03:02:46;;;;;;;5.58;1.62;;;;;;;13.12;86.30;98053.02;1738909;82;21049;-79
2021/05/13 03:05:15;;;;;;;3.92;2.02;;;;;;;13.12;85.54;98054.80;1743333;82;21019;-82
2021/05/13 03:07:46;;;;;;;4.42;1.70;;;;;;;13.11;86.27;98051.34;1743210;82;21590;-78
2021/05/13 03:10:22;;;;;;;4.45;1.75;;;;;;;13.09;87.27;98049.72;1735663;82;21073;-83
2021/05/13 03:12:42;;;;;;;4.30;2.00;;;;;;;13.09;86.06;98048.41;1733655;82;21130;-79
2021/05/13 03:15:10;;;;;;;3.80;1.67;;;;;;;13.08;86.32;98055.41;1734188;82;21029;-82
2021/05/13 03:17:37;;;;;;;3.98;1.85;;;;;;;13.05;86.13;98058.19;1743118;82;21075;-79
2021/05/13 03:20:07;;;;;;;4.87;1.80;;;;;;;13.07;84.88;98064.61;1730929;82;21084;-80
2021/05/13 03:22:33;;;;;;;3.10;1.75;;;;;;;13.07;85.90;98057.66;1740125;82;21100;-79
2021/05/13 03:25:04;;;;;;;6.25;2.33;;;;;;;13.06;85.21;98054.64;1729720;82;21064;-78
2021/05/13 03:27:45;;;;;;;3.72;1.80;;;;;;;13.07;86.13;98060.26;1736112;82;21032;-78
2021/05/13 03:30:08;;;;;;;3.75;1.47;;;;;;;13.04;87.82;98060.88;1729627;82;21072;-80
2021/05/13 03:32:35;;;;;;;3.60;1.70;;;;;;;13.07;87.67;98066.78;1732528;82;21091;-78
2021/05/13 03:35:02;;;;;;;2.98;1.90;;;;;;;13.06;87.70;98061.17;1729472;82;21052;-77
2021/05/13 03:37:29;;;;;;;4.72;2.27;;;;;;;13.08;85.76;98061.93;1738901;82;21049;-77
2021/05/13 03:39:56;;;;;;;3.30;1.75;;;;;;;13.07;86.72;98066.78;1736936;82;21105;-79
2021/05/13 03:42:23;;;;;;;3.98;2.30;;;;;;;13.04;88.04;98070.84;1734720;82;21056;-78
2021/05/13 03:44:51;;;;;;;4.95;2.30;;;;;;;13.02;88.91;98070.55;1731663;82;21078;-79
2021/05/13 03:47:20;;;;;;;5.72;2.40;;;;;;;13.00;87.71;98056.73;1732719;82;21066;-78
2021/05/13 03:49:46;;;;;;;4.58;2.17;;;;;;;13.05;89.02;98067.33;1732319;82;21123;-78
2021/05/13 03:52:13;;;;;;;5.65;2.40;;;;;;;13.06;88.25;98059.86;1732158;82;21071;-80
2021/05/13 03:54:40;;;;;;;5.30;2.83;;;;;;;13.06;89.07;98058.56;1732175;82;21067;-77
2021/05/13 03:57:08;;;;;;;7.08;2.60;;;;;;;13.04;89.58;98060.88;1732064;82;21072;-78
2021/05/13 03:59:40;;;;;;;5.55;2.50;;;;;;;13.07;89.24;98060.70;1733701;82;21076;-78
2021/05/13 04:02:12;;;;;;;5.15;2.52;;;;;;;13.05;89.14;98057.33;1732303;82;21052;-78
2021/05/13 04:04:37;;;;;;;6.60;2.80;;;;;;;13.13;88.31;98057.80;1732887;82;21048;-80
2021/05/13 04:07:05;;;;;;;8.03;2.90;;;;;;;13.14;89.44;98062.91;1744399;82;21029;-80
2021/05/13 04:09:32;;;;;;;5.05;2.58;;;;;;;13.15;88.34;98067.69;1734706;82;21073;-78
2021/05/13 04:11:59;;;;;;;4.03;2.42;;;;;;;13.20;86.32;98056.53;1739971;82;21067;-82
2021/05/13 04:14:26;;;;;;;6.28;2.65;;;;;;;13.16;88.83;98062.84;1732757;82;21369;-79
2021/05/13 04:16:53;;;;;;;7.03;2.80;;;;;;;13.19;86.37;98067.91;1730962;82;21073;-83
2021/05/13 04:19:21;;;;;;;7.15;2.80;;;;;;;13.22;87.70;98074.27;1731127;82;21076;-79
2021/05/13 04:21:48;;;;;;;6.28;2.80;;;;;;;13.27;87.86;98059.66;1736670;82;21040;-78
2021/05/13 04:24:18;;;;;;;8.80;3.33;;;;;;;13.28;88.16;98058.28;1732079;82;21103;-77
2021/05/13 04:26:44;;;;;;;6.55;2.70;;;;;;;13.29;88.32;98056.09;1696144;83;21089;-80
2021/05/13 04:29:11;;;;;;;8.58;3.33;;;;;;;13.36;88.13;98060.52;1700759;84;21361;-81
2021/05/13 04:31:37;;;;;;;4.97;3.08;;;;;;;13.39;86.51;98056.45;1737727;82;21064;-79
2021/05/13 04:34:05;;;;;;;8.08;3.47;;;;;;;13.38;89.03;98055.23;1701531;83;21084;-79
2021/05/13 04:36:32;;;;;;;8.40;3.00;;;;;;;13.43;89.31;98057.98;1694346;84;21052;-80
2021/05/13 04:38:59;;;;;;;5.67;2.92;;;;;;;13.50;87.33;98059.31;1710654;83;21655;-80
2021/05/13 04:41:31;;;;;;;9.70;3.30;;;;;;;13.54;86.45;98062.61;1694010;83;21087;-80
2021/05/13 04:43:54;;;;;;;6.50;3.35;;;;;;;13.50;86.74;98059.79;1701885;83;21092;-79
2021/05/13 04:46:23;;;;;;;4.80;2.90;;;;;;;13.51;87.20;98057.58;1694512;83;21139;-80
2021/05/13 04:51:23;;;;;;;10.88;3.90;;;;;;;13.49;86.28;98052.90;1730969;82;21051;-79
2021/05/13 04:53:50;;;;;;;6.35;4.08;;;;;;;13.53;87.47;98063.55;1702331;83;21089;-79
2021/05/13 04:56:23;;;;;;;8.45;3.77;;;;;;;13.58;87.53;98062.83;1729907;82;21036;-80
2021/05/13 04:58:49;;;;;;;7.28;3.20;;;;;;;13.53;87.46;98050.03;1735606;81;21052;-82
2021/05/13 05:01:17;;;;;;;8.05;3.72;;;;;;;13.46;87.81;98046.52;1725766;81;21033;-81
2021/05/13 05:03:44;;;;;;;11.05;3.85;;;;;;;13.57;87.97;98045.93;1704625;84;21162;-81
2021/05/13 05:06:11;;;;;;;8.43;3.65;;;;;;;13.63;87.75;98044.32;1714261;81;20993;-81
2021/05/13 05:08:39;;;;;;;6.83;3.55;;;;;;;13.70;86.39;98050.87;1703611;84;21604;-81
2021/05/13 05:11:07;;;;;;;7.37;4.00;;;;;;;13.82;85.87;98050.67;1693352;83;21296;-82
2021/05/13 05:13:34;;;;;;;7.95;4.37;;;;;;;13.85;86.03;98058.36;1686395;84;21017;-80
2021/05/13 05:16:01;;;;;;;7.95;3.90;;;;;;;13.95;84.88;98054.30;1698735;83;21112;-82
2021/05/13 05:18:27;;;;;;;13.90;4.80;;;;;;;13.95;85.37;98056.92;1738172;82;21042;-79
2021/05/13 05:20:54;;;;;;;11.95;4.28;;;;;;;14.04;84.66;98052.94;1738409;82;22130;-85
2021/05/13 05:23:21;;;;;;;10.70;4.78;;;;;;;14.06;83.92;98054.53;1691281;83;21085;-84
2021/05/13 05:25:48;;;;;;;21.52;4.90;;;;;;;14.07;84.32;98058.00;1697531;83;21052;-85
2021/05/13 05:28:15;;;;;;;9.68;4.03;;;;;;;14.05;84.82;98062.48;1691214;83;21018;-80
2021/05/13 05:30:42;;;;;;;7.95;3.90;;;;;;;14.04;84.52;98059.47;1693438;83;21109;-80
2021/05/13 05:33:10;;;;;;;14.87;4.60;;;;;;;14.06;83.91;98061.53;1690343;83;21034;-81
2021/05/13 05:35:38;;;;;;;12.40;4.20;;;;;;;13.96;84.82;98058.59;1697788;83;22374;-80
2021/05/13 05:38:07;;;;;;;9.60;4.12;;;;;;;14.04;83.15;98062.08;1688505;83;21578;-82
2021/05/13 05:40:35;;;;;;;9.33;3.70;;;;;;;13.96;84.47;98068.20;1692831;83;21041;-80
2021/05/13 05:43:03;;;;;;;9.40;3.87;;;;;;;13.93;84.36;98067.91;1712045;81;21042;-83
2021/05/13 05:45:31;;;;;;;12.07;4.62;;;;;;;14.01;83.93;98057.05;1693438;83;21206;-79
2021/05/13 05:48:01;;;;;;;12.82;4.47;;;;;;;14.12;84.59;98064.66;1688061;83;21309;-80
2021/05/13 05:50:30;;;;;;;9.30;3.98;;;;;;;14.19;84.36;98058.62;1689927;83;21022;-83
2021/05/13 05:52:57;;;;;;;10.23;4.20;;;;;;;14.27;84.19;98055.10;1685344;83;21090;-83
2021/05/13 05:55:24;;;;;;;9.20;4.30;;;;;;;14.30;83.14;98056.69;1654616;84;21064;-80
2021/05/13 05:57:51;;;;;;;7.80;4.12;;;;;;;14.30;82.75;98058.00;1670467;84;21106;-82
2021/05/13 06:00:18;;;;;;;7.85;3.58;;;;;;;14.25;83.10;98056.97;1664992;84;21080;-78
2021/05/13 06:02:46;;;;;;;6.62;3.65;;;;;;;14.16;82.64;98056.64;1675905;83;21107;-81
2021/05/13 06:05:13;;;;;;;12.45;4.03;;;;;;;14.08;82.95;98054.45;1690938;83;21086;-80
2021/05/13 06:07:41;;;;;;;6.17;3.72;;;;;;;14.05;82.78;98054.16;1694204;83;21601;-79
2021/05/13 06:10:10;;;;;;;8.80;3.75;;;;;;;14.05;83.10;98048.94;1699515;83;21074;-80
2021/05/13 06:12:37;;;;;;;7.45;3.80;;;;;;;14.11;82.23;98044.67;1674276;84;21033;-79
2021/05/13 06:15:07;;;;;;;7.87;3.67;;;;;;;14.15;84.49;98049.74;1698076;83;21056;-80
2021/05/13 06:17:34;;;;;;;4.90;3.20;;;;;;;14.26;83.60;98051.27;1682166;84;21560;-79
2021/05/13 06:20:01;;;;;;;7.28;3.30;;;;;;;14.31;82.95;98041.40;1683399;84;21563;-79
2021/05/13 06:22:30;;;;;;;11.97;4.22;;;;;;;14.43;82.29;98043.78;1699952;80;22236;-78
2021/05/13 06:24:57;;;;;;;7.92;4.42;;;;;;;14.48;83.25;98045.20;1735752;82;21125;-79
2021/05/13 06:27:24;;;;;;;9.30;4.22;;;;;;;14.63;83.05;98041.34;1697041;84;21073;-77
2021/05/13 06:29:50;;;;;;;6.87;3.90;;;;;;;14.77;82.54;98051.84;1694714;83;21117;-77
2021/05/13 06:32:17;;;;;;;11.83;4.12;;;;;;;14.86;82.71;98050.44;1672586;85;21045;-78
2021/05/13 06:34:44;;;;;;;6.55;3.15;;;;;;;14.99;81.85;98047.95;1662820;85;21100;-79
2021/05/13 06:37:11;;;;;;;7.25;3.50;;;;;;;15.10;81.68;98046.38;1736913;82;22028;-79
2021/05/13 06:39:37;;;;;;;6.75;3.42;;;;;;;15.23;80.85;98042.53;1736762;82;21033;-78
2021/05/13 06:42:05;;;;;;;7.83;3.35;;;;;;;15.21;80.46;98033.94;1739736;82;21065;-78
2021/05/13 06:44:32;;;;;;;9.68;3.47;;;;;;;15.37;80.50;98033.00;1736218;82;21581;-78
2021/05/13 06:46:59;;;;;;;8.78;3.15;;;;;;;15.57;79.96;98027.36;1740342;82;21049;-78
2021/05/13 06:49:25;;;;;;;10.60;3.65;;;;;;;15.74;79.30;98035.52;1736118;82;21029;-79
2021/05/13 06:51:52;;;;;;;10.13;3.55;;;;;;;15.88;78.18;98032.03;1742035;82;21045;-78
2021/05/13 06:54:19;;;;;;;4.92;3.05;;;;;;;15.96;77.44;98027.61;1740936;82;22281;-79
2021/05/13 06:56:47;;;;;;;5.17;3.20;;;;;;;16.01;77.09;98028.14;1741734;82;21142;-77
2021/05/13 06:59:13;;;;;;;5.72;3.40;;;;;;;16.12;77.83;98030.92;1731290;81;21061;-78
2021/05/13 07:01:40;;;;;;;5.60;3.22;;;;;;;16.28;77.14;98026.35;1739366;82;21076;-79
2021/05/13 07:04:08;;;;;;;8.28;3.75;;;;;;;16.35;77.47;98029.41;1741452;81;21124;-78
2021/05/13 07:06:37;;;;;;;9.85;3.20;;;;;;;16.53;76.91;98029.14;1741910;82;21045;-79
2021/05/13 07:09:06;;;;;;;5.10;2.70;;;;;;;16.57;75.62;98022.74;1739350;82;21061;-78
2021/05/13 07:11:34;;;;;;;7.83;4.35;;;;;;;16.74;75.52;98012.44;1738674;82;21089;-79
2021/05/13 07:14:00;;;;;;;10.85;2.72;;;;;;;16.99;75.16;98020.81;1741287;82;21323;-78
2021/05/13 07:16:28;;;;;;;6.97;3.02;;;;;;;17.16;74.61;98019.19;1739533;82;21132;-78
2021/05/13 07:18:54;;;;;;;4.92;2.70;;;;;;;17.23;72.72;98011.27;1739574;82;21618;-78
2021/05/13 07:21:21;;;;;;;9.65;3.58;;;;;;;17.45;72.04;98011.08;1739010;82;21053;-78
2021/05/13 07:23:47;;;;;;;8.60;2.92;;;;;;;17.51;71.65;98013.27;1738686;82;21050;-79
2021/05/13 07:26:14;;;;;;;8.60;3.33;;;;;;;17.60;71.48;98003.41;1737713;82;21057;-78
2021/05/13 07:28:40;;;;;;;8.83;2.85;;;;;;;17.71;71.66;98000.03;1736519;82;21049;-78
2021/05/13 07:31:08;;;;;;;8.63;2.92;;;;;;;17.80;70.42;97998.52;1734690;82;21074;-78
2021/05/13 07:33:36;;;;;;;4.50;2.52;;;;;;;17.98;71.09;97992.42;1741892;82;21050;-79
2021/05/13 07:36:04;;;;;;;6.22;3.10;;;;;;;18.27;70.39;97994.24;1737253;82;21108;-78
2021/05/13 07:38:31;;;;;;;6.03;2.95;;;;;;;18.43;69.91;97997.40;1743368;82;21021;-78
2021/05/13 07:41:02;;;;;;;6.33;2.50;;;;;;;18.62;68.70;97988.97;1739586;82;21011;-79
2021/05/13 07:43:31;;;;;;;5.45;2.55;;;;;;;18.73;69.21;97982.88;1732836;82;21194;-78
2021/05/13 07:45:58;;;;;;;4.20;2.22;;;;;;;18.94;67.62;97969.91;1735474;82;21057;-77
2021/05/13 07:48:28;;;;;;;3.83;2.05;;;;;;;19.03;64.21;97973.61;1736482;82;21041;-80
2021/05/13 07:50:55;;;;;;;5.62;2.30;;;;;;;19.12;65.75;97976.86;1740097;82;21097;-78
2021/05/13 07:53:22;;;;;;;5.65;2.00;;;;;;;19.30;61.29;97972.41;1733241;82;21042;-78
2021/05/13 07:55:49;;;;;;;4.70;2.02;;;;;;;19.42;61.91;97970.97;1733341;82;21037;-78
2021/05/13 07:58:15;;;;;;;7.28;2.40;;;;;;;19.43;62.25;97973.12;1741010;82;21053;-77
2021/05/13 08:00:42;;;;;;;4.65;2.40;;;;;;;19.44;59.47;97966.91;1738765;81;21116;-78
2021/05/13 08:03:08;;;;;;;3.25;1.80;;;;;;;19.30;60.76;97971.95;1739879;82;21064;-77
2021/05/13 08:05:35;;;;;;;3.47;2.00;;;;;;;19.13;60.08;97976.38;1737094;82;21092;-77
2021/05/13 08:08:02;;;;;;;7.62;1.95;;;;;;;19.25;59.03;97984.62;1740122;82;21037;-78
2021/05/13 08:10:29;;;;;;;7.15;2.02;;;;;;;19.25;58.44;97981.50;1733432;82;21108;-78
2021/05/13 08:12:56;;;;;;;7.85;1.70;;;;;;;19.36;59.03;97980.69;1738902;82;21077;-78
2021/05/13 08:15:23;;;;;;;5.83;1.70;;;;;;;19.45;57.17;97973.83;1737063;82;21053;-77
2021/05/13 08:17:50;;;;;;;4.50;1.82;;;;;;;19.62;56.03;97972.50;1736930;82;21521;-79
2021/05/13 08:20:18;;;;;;;7.53;1.87;;;;;;;19.70;57.32;97975.84;1736080;82;21049;-78
2021/05/13 08:22:47;;;;;;;5.85;2.05;;;;;;;19.70;57.79;97974.53;1671133;85;21622;-78
2021/05/13 08:25:19;;;;;;;3.15;1.57;;;;;;;19.80;56.86;97976.81;1693675;82;21064;-78
2021/05/13 08:27:44;;;;;;;4.08;1.40;;;;;;;19.83;55.58;97977.38;1684307;85;21574;-79
2021/05/13 08:30:11;;;;;;;3.55;1.42;;;;;;;20.06;56.43;97971.56;1662662;86;21054;-78
2021/05/13 08:32:38;;;;;;;6.87;1.60;;;;;;;20.12;55.04;97968.08;1665438;84;21135;-77
2021/05/13 08:35:05;;;;;;;6.55;2.25;;;;;;;20.11;54.32;97968.53;1692793;84;21045;-79
2021/05/13 08:37:32;;;;;;;5.10;1.80;;;;;;;20.08;53.58;97965.34;1691998;83;21176;-78
2021/05/13 08:39:59;;;;;;;8.13;2.00;;;;;;;20.16;53.66;97962.90;1700775;83;21090;-78
2021/05/13 08:42:26;;;;;;;2.50;1.40;;;;;;;20.30;54.63;97955.16;1697684;83;21064;-79
2021/05/13 08:44:53;;;;;;;3.98;1.42;;;;;;;20.24;54.11;97954.69;1660386;86;21051;-78
2021/05/13 08:47:19;;;;;;;3.17;1.40;;;;;;;20.40;54.45;97946.33;1691102;85;21062;-82
2021/05/13 08:49:46;;;;;;;6.65;1.72;;;;;;;20.59;53.76;97943.48;1695292;84;21053;-79
2021/05/13 08:52:19;;;;;;;19.67;5.50;;;;;;;20.76;52.98;97952.14;1692721;84;21665;-79
2021/05/13 08:54:52;;;;;;;3.80;1.47;;;;;;;20.99;53.21;97932.16;1690986;84;21068;-79
2021/05/13 08:57:20;;;;;;;3.35;1.50;;;;;;;21.05;49.69;97932.48;1696698;83;21034;-80
2021/05/13 08:59:47;;;;;;;4.65;1.30;;;;;;;21.17;49.56;97931.05;1679365;85;21082;-80
2021/05/13 09:02:17;;;;;;;5.05;1.75;;;;;;;21.24;51.14;97927.73;1667099;86;21946;-79
2021/05/13 09:04:48;;;;;;;4.10;1.50;;;;;;;21.35;48.92;97923.34;1643964;86;21090;-80
2021/05/13 09:07:28;;;;;;;6.05;1.95;;;;;;;21.40;48.49;97919.78;1695459;84;21026;-79
2021/05/13 09:10:02;;;;;;;5.83;1.52;;;;;;;21.58;49.16;97923.95;1696042;84;21608;-80
2021/05/13 09:12:39;;;;;;;6.25;1.60;;;;;;;21.76;47.71;97913.54;1696650;83;21072;-78
2021/05/13 09:15:14;;;;;;;3.60;1.65;;;;;;;21.69;46.56;97909.80;1694186;83;21033;-79
2021/05/13 09:17:43;;;;;;;5.53;1.60;;;;;;;21.65;48.72;97914.52;1697226;84;21077;-79
2021/05/13 09:20:32;;;;;;;4.65;1.27;;;;;;;21.71;47.10;97910.49;1694488;84;21687;-79
2021/05/13 09:23:23;;;;;;;2.30;1.30;;;;;;;21.63;48.05;97911.17;1696291;83;21120;-80
2021/05/13 09:26:12;;;;;;;2.95;1.20;;;;;;;21.57;45.99;97903.30;1690781;83;21033;-79
2021/05/13 09:28:42;;;;;;;2.47;1.52;;;;;;;21.68;47.06;97909.43;1694180;83;21072;-80
2021/05/13 09:31:29;;;;;;;4.25;1.45;;;;;;;21.77;47.58;97897.54;1693010;83;21148;-82
2021/05/13 09:34:06;;;;;;;3.67;1.40;;;;;;;21.91;48.75;97891.50;1687577;85;22000;-82
2021/05/13 09:36:33;;;;;;;4.45;1.70;;;;;;;22.07;48.39;97889.61;1679992;85;21076;-83
2021/05/13 09:39:00;;;;;;;4.95;1.60;;;;;;;22.14;49.45;97884.08;1684704;85;21067;-81
2021/05/13 09:41:34;;;;;;;3.30;1.60;;;;;;;22.30;48.99;97877.73;1665363;85;21142;-79
2021/05/13 09:44:02;;;;;;;4.10;1.52;;;;;;;22.48;48.43;97887.61;1679476;85;21099;-81
2021/05/13 09:46:37;;;;;;;4.33;1.50;;;;;;;22.55;44.53;97874.97;1673599;85;21110;-81
2021/05/13 09:49:04;;;;;;;3.67;1.70;;;;;;;22.61;43.33;97877.55;1658031;85;21087;-81
2021/05/13 09:51:38;;;;;;;6.75;1.40;;;;;;;22.57;43.76;97881.46;1698246;84;21076;-81
2021/05/13 09:54:15;;;;;;;5.28;1.75;;;;;;;22.43;44.58;97888.05;1668742;86;21119;-81
2021/05/13 09:56:49;;;;;;;6.58;1.57;;;;;;;22.20;44.40;97891.45;1695547;83;21198;-81
2021/05/13 09:59:38;;;;;;;7.12;1.40;;;;;;;21.85;43.50;97892.88;1666438;86;21091;-82
2021/05/13 10:02:07;;;;;;;5.80;1.80;;;;;;;21.68;44.06;97895.71;1698198;83;21158;-82
2021/05/13 10:04:34;;;;;;;4.67;1.72;;;;;;;21.38;46.15;97899.26;1698152;84;21148;-81
2021/05/13 10:07:01;;;;;;;11.10;1.95;;;;;;;21.09;46.67;97911.06;1666290;86;21142;-84
2021/05/13 10:09:27;;;;;;;9.95;2.30;;;;;;;20.81;49.54;97916.94;1666879;85;21107;-81
2021/05/13 10:11:57;;;;;;;6.70;2.25;;;;;;;20.56;55.08;97921.29;1666926;86;21128;-84
2021/05/13 10:14:27;;;;;;;5.12;2.30;;;;;;;20.31;54.80;97917.23;1669353;86;21102;-83
2021/05/13 10:17:00;;;;;;;7.35;2.10;;;;;;;20.14;57.96;97916.84;1668315;85;21106;-81
2021/05/13 10:19:31;;;;;;;5.87;2.50;;;;;;;20.01;56.36;97923.59;1667258;86;21095;-82
2021/05/13 10:22:01;;;;;;;6.22;2.62;;;;;;;19.85;55.64;97942.97;1690821;85;21079;-84
2021/05/13 10:24:29;;;;;;;6.55;3.10;;;;;;;19.14;58.73;97956.95;1683362;83;21155;-82
2021/05/13 10:26:55;;;;;;;4.22;2.58;;;;;;;18.19;62.29;97950.08;1705542;84;21468;-83
2021/05/13 10:29:27;;;;;;;5.08;2.70;;;;;;;17.84;62.07;97971.08;1741615;82;21119;-84
2021/05/13 10:32:14;;;;;;;4.60;2.20;;;;;;;17.50;63.22;97966.91;1739081;82;21048;-84
2021/05/13 10:34:46;;;;;;;6.42;2.05;;;;;;;17.30;63.61;97963.07;1738717;81;20985;-83
2021/05/13 10:37:19;;;;;;;3.10;1.72;;;;;;;16.92;63.23;97970.53;1730098;81;21652;-83
2021/05/13 10:40:21;;;;;;;5.78;2.30;;;;;;;16.72;62.71;97968.41;1725103;81;21150;-81
2021/05/13 10:43:03;;;;;;;6.20;2.52;;;;;;;16.75;61.83;97972.12;1699776;84;21117;-82
2021/05/13 10:45:34;;;;;;;5.00;2.70;;;;;;;16.73;62.66;97972.21;1697213;84;21064;-84
2021/05/13 10:48:26;;;;;;;4.60;2.85;;;;;;;16.68;64.10;97974.33;1724431;82;21053;-85
2021/05/13 10:51:06;;;;;;;6.37;3.20;;;;;;;16.55;66.85;97980.03;1728162;81;21092;-86
2021/05/13 10:56:28;;;;;;;8.15;3.20;;;;;;;16.73;67.86;97960.88;1733693;81;21124;-86
2021/05/13 10:59:12;;;;;;;8.48;2.92;;;;;;;16.65;69.99;97967.96;1744911;82;21036;-83
2021/05/13 11:01:48;;;;;;;7.37;3.70;;;;;;;16.77;68.74;97960.59;1735183;82;21012;-83
2021/05/13 11:04:29;;;;;;;11.65;4.20;;;;;;;17.01;69.09;97953.28;1727409;82;21133;-83
2021/05/13 11:07:20;;;;;;;13.35;4.05;;;;;;;17.34;67.12;97953.19;1741786;81;21083;-83
2021/05/13 11:09:52;;;;;;;10.95;3.50;;;;;;;17.65;65.78;97946.59;1741810;81;21081;-82
2021/05/13 11:12:26;;;;;;;15.70;3.67;;;;;;;17.89;64.92;97945.30;1722796;80;21072;-83
2021/05/13 11:15:04;;;;;;;16.10;3.92;;;;;;;18.13;64.35;97947.91;1705888;83;21002;-83
2021/05/13 11:17:50;;;;;;;9.30;2.65;;;;;;;18.31;63.63;97947.02;1692792;83;21193;-83
2021/05/13 11:20:48;;;;;;;11.40;3.75;;;;;;;18.46;61.29;97937.97;1739406;82;21056;-81
2021/05/13 11:23:24;;;;;;;10.88;3.77;;;;;;;18.80;59.49;97934.56;1740497;82;21084;-82
2021/05/13 11:25:55;;;;;;;12.03;2.80;;;;;;;19.07;59.73;97928.95;1765826;80;21085;-82
2021/05/13 11:28:43;;;;;;;5.10;3.00;;;;;;;19.23;58.75;97937.31;1740369;82;21065;-82
2021/05/13 11:31:14;;;;;;;20.72;3.08;;;;;;;19.11;57.16;97932.19;1700858;83;21054;-83
2021/05/13 11:33:52;;;;;;;10.80;3.12;;;;;;;19.31;56.33;97923.54;1702992;84;21144;-81
2021/05/13 11:36:29;;;;;;;6.37;3.12;;;;;;;19.30;57.22;97917.06;1702739;83;21084;-81
2021/05/13 11:39:09;;;;;;;4.33;2.90;;;;;;;19.46;56.70;97920.17;1731322;83;21120;-83
2021/05/13 11:41:33;;;;;;;12.50;4.30;;;;;;;19.37;55.16;97918.27;1699764;83;21041;-81
2021/05/13 11:44:00;;;;;;;9.43;3.90;;;;;;;19.61;55.42;97928.14;1717784;81;21678;-81
2021/05/13 11:46:28;;;;;;;10.35;3.20;;;;;;;19.57;54.15;97924.57;1690004;83;21069;-81